createdAt,value
2017-12-03T00:01:23.736Z,95322.78
2017-12-03T00:03:51.425Z,95323.19
2017-12-03T00:06:19.678Z,95322.75
2017-12-03T00:08:47.380Z,95305.52
2017-12-03T00:11:15.102Z,95297.00
2017-12-03T00:13:42.966Z,95287.38
2017-12-03T00:16:12.275Z,95279.97
2017-12-03T00:18:39.981Z,95276.48
2017-12-03T00:21:07.810Z,95281.12
2017-12-03T00:23:35.481Z,95290.11
2017-12-03T00:26:05.503Z,95288.03
2017-12-03T00:28:34.425Z,95285.44
2017-12-03T00:31:02.354Z,95271.38
2017-12-03T00:33:30.068Z,95273.88
2017-12-03T00:35:59.035Z,95267.97
2017-12-03T00:38:27.895Z,95265.53
2017-12-03T00:40:56.240Z,95279.17
2017-12-03T00:43:23.977Z,95263.94
2017-12-03T00:45:52.549Z,95269.23
2017-12-03T00:48:20.710Z,95262.14
2017-12-03T00:50:48.722Z,95269.89
2017-12-03T00:53:16.816Z,95270.36
2017-12-03T00:55:44.684Z,95272.86
2017-12-03T00:58:15.554Z,95257.55
2017-12-03T01:00:44.860Z,95255.41
2017-12-03T01:03:12.777Z,95245.40
2017-12-03T01:05:43.212Z,95246.02
2017-12-03T01:08:17.049Z,95271.05
2017-12-03T01:10:49.458Z,95245.55
2017-12-03T01:13:17.542Z,95227.95
2017-12-03T01:15:46.309Z,95227.13
2017-12-03T01:18:15.155Z,95216.97
2017-12-03T01:20:43.017Z,95211.60
2017-12-03T01:23:11.530Z,95207.58
2017-12-03T01:25:39.943Z,95213.78
2017-12-03T01:28:08.838Z,95202.50
2017-12-03T01:30:37.838Z,95212.16
2017-12-03T01:33:05.535Z,95194.84
2017-12-03T01:35:34.903Z,95196.42
2017-12-03T01:38:02.703Z,95190.43
2017-12-03T01:40:30.807Z,95197.94
2017-12-03T01:42:58.499Z,95198.63
2017-12-03T01:45:27.160Z,95205.91
2017-12-03T01:47:55.199Z,95217.28
2017-12-03T01:50:23.291Z,95216.87
2017-12-03T01:52:53.664Z,95198.84
2017-12-03T01:55:21.820Z,95177.80
2017-12-03T01:57:50.091Z,95176.93
2017-12-03T02:00:18.476Z,95202.52
2017-12-03T02:02:47.068Z,95202.50
2017-12-03T02:05:14.710Z,95205.01
2017-12-03T02:07:42.933Z,95160.66
2017-12-03T02:10:10.550Z,95157.50
2017-12-03T02:12:38.510Z,95131.85
2017-12-03T02:15:06.359Z,95149.38
2017-12-03T02:17:34.184Z,95142.57
2017-12-03T02:20:01.954Z,95126.39
2017-12-03T02:22:29.802Z,95134.30
2017-12-03T02:24:57.548Z,95120.80
2017-12-03T02:27:25.393Z,95128.38
2017-12-03T02:29:53.400Z,95134.27
2017-12-03T02:32:21.387Z,95121.53
2017-12-03T02:34:49.165Z,95111.09
2017-12-03T02:37:17.273Z,95111.41
2017-12-03T02:39:45.111Z,95099.19
2017-12-03T02:42:12.759Z,95093.08
2017-12-03T02:44:47.093Z,95073.64
2017-12-03T02:47:14.933Z,95089.62
2017-12-03T02:49:42.591Z,95085.19
2017-12-03T02:52:10.183Z,95104.05
2017-12-03T02:54:37.843Z,95115.08
2017-12-03T02:57:05.399Z,95103.14
2017-12-03T02:59:32.995Z,95101.31
2017-12-03T03:02:02.179Z,95109.22
2017-12-03T03:04:30.813Z,95087.19
2017-12-03T03:06:58.569Z,95056.73
2017-12-03T03:09:27.030Z,95043.49
2017-12-03T03:11:54.677Z,95055.94
2017-12-03T03:14:22.317Z,95081.76
2017-12-03T03:16:50.757Z,95090.50
2017-12-03T03:19:19.851Z,95085.75
2017-12-03T03:21:47.701Z,95094.58
2017-12-03T03:24:15.375Z,95089.22
2017-12-03T03:26:46.157Z,95070.16
2017-12-03T03:29:14.281Z,95070.52
2017-12-03T03:31:42.533Z,95062.61
2017-12-03T03:34:12.388Z,95055.88
2017-12-03T03:36:40.136Z,95041.99
2017-12-03T03:39:10.226Z,95049.53
2017-12-03T03:41:40.077Z,95064.38
2017-12-03T03:44:07.982Z,95072.56
2017-12-03T03:46:38.362Z,95054.53
2017-12-03T03:49:07.287Z,95053.13
2017-12-03T03:51:35.664Z,95050.23
2017-12-03T03:54:05.328Z,95051.38
2017-12-03T03:56:33.138Z,95064.63
2017-12-03T03:59:00.827Z,95070.75
2017-12-03T04:01:31.095Z,95066.98
2017-12-03T04:03:58.940Z,95075.28
2017-12-03T04:06:26.893Z,95072.14
2017-12-03T04:08:54.571Z,95064.52
2017-12-03T04:11:22.185Z,95061.59
2017-12-03T04:13:50.143Z,95058.80
2017-12-03T04:16:17.744Z,95057.75
2017-12-03T04:18:45.297Z,95072.20
2017-12-03T04:21:12.856Z,95061.59
2017-12-03T04:23:40.483Z,95074.02
2017-12-03T04:26:08.118Z,95080.08
2017-12-03T04:28:35.670Z,95073.97
2017-12-03T04:31:03.265Z,95068.89
2017-12-03T04:33:30.911Z,95066.33
2017-12-03T04:35:58.530Z,95072.98
2017-12-03T04:38:26.178Z,95067.74
2017-12-03T04:40:53.960Z,95077.11
2017-12-03T04:43:21.527Z,95074.66
2017-12-03T04:45:49.109Z,95062.61
2017-12-03T04:48:16.681Z,95078.39
2017-12-03T04:50:44.731Z,95070.66
2017-12-03T04:53:12.521Z,95090.02
2017-12-03T04:55:40.098Z,95086.89
2017-12-03T04:58:10.088Z,95095.85
2017-12-03T05:00:37.946Z,95085.89
2017-12-03T05:03:07.417Z,95096.30
2017-12-03T05:05:36.228Z,95114.00
2017-12-03T05:08:04.260Z,95098.48
2017-12-03T05:10:34.324Z,95097.73
2017-12-03T05:13:02.305Z,95109.66
2017-12-03T05:15:31.313Z,95129.06
2017-12-03T05:18:01.411Z,95124.17
2017-12-03T05:20:29.198Z,95133.54
2017-12-03T05:22:59.012Z,95115.78
2017-12-03T05:25:29.134Z,95139.11
2017-12-03T05:27:56.849Z,95134.65
2017-12-03T05:30:26.978Z,95119.67
2017-12-03T05:32:59.069Z,95118.52
2017-12-03T05:35:27.562Z,95120.63
2017-12-03T05:37:58.653Z,95124.77
2017-12-03T05:40:29.722Z,95123.36
2017-12-03T05:42:58.630Z,95095.11
2017-12-03T05:45:29.575Z,95096.90
2017-12-03T05:47:57.390Z,95103.03
2017-12-03T05:50:27.592Z,95114.66
2017-12-03T05:52:57.466Z,95112.56
2017-12-03T05:55:25.093Z,95112.30
2017-12-03T05:57:52.746Z,95128.38
2017-12-03T06:00:20.744Z,95114.33
2017-12-03T06:02:49.038Z,95154.99
2017-12-03T06:05:16.806Z,95141.31
2017-12-03T06:07:44.483Z,95057.53
2017-12-03T06:10:12.069Z,95093.02
2017-12-03T06:12:42.365Z,95108.18
2017-12-03T06:15:10.897Z,95095.37
2017-12-03T06:17:38.550Z,95090.64
2017-12-03T06:20:06.352Z,95127.20
2017-12-03T06:22:34.207Z,95129.42
2017-12-03T06:25:01.803Z,95150.48
2017-12-03T06:27:29.366Z,95120.11
2017-12-03T06:29:57.005Z,95128.75
2017-12-03T06:32:24.608Z,95145.04
2017-12-03T06:34:52.252Z,95135.48
2017-12-03T06:37:20.214Z,95189.41
2017-12-03T06:39:47.802Z,95203.14
2017-12-03T06:42:15.364Z,95221.33
2017-12-03T06:44:42.979Z,95227.20
2017-12-03T06:47:10.549Z,95209.22
2017-12-03T06:49:38.318Z,95213.96
2017-12-03T06:52:06.121Z,95212.91
2017-12-03T06:54:33.960Z,95216.07
2017-12-03T06:57:01.579Z,95228.44
2017-12-03T06:59:29.401Z,95238.19
2017-12-03T07:01:57.049Z,95221.58
2017-12-03T07:04:24.601Z,95202.66
2017-12-03T07:06:52.185Z,95212.63
2017-12-03T07:09:19.804Z,95203.52
2017-12-03T07:11:47.664Z,95211.17
2017-12-03T07:14:15.247Z,95240.83
2017-12-03T07:16:42.854Z,95234.27
2017-12-03T07:19:10.667Z,95239.41
2017-12-03T07:21:38.247Z,95234.34
2017-12-03T07:24:05.846Z,95233.60
2017-12-03T07:26:33.632Z,95238.95
2017-12-03T07:29:01.209Z,95257.61
2017-12-03T07:31:28.762Z,95275.99
2017-12-03T07:33:56.345Z,95270.87
2017-12-03T07:36:24.128Z,95286.23
2017-12-03T07:38:51.867Z,95288.98
2017-12-03T07:41:19.429Z,95295.45
2017-12-03T07:43:47.218Z,95305.64
2017-12-03T07:46:14.822Z,95317.23
2017-12-03T07:48:42.436Z,95332.91
2017-12-03T07:51:10.040Z,95307.70
2017-12-03T07:53:37.843Z,95310.50
2017-12-03T07:56:06.139Z,95286.89
2017-12-03T07:58:33.715Z,95272.91
2017-12-03T08:01:01.366Z,95296.97
2017-12-03T08:03:29.073Z,95284.69
2017-12-03T08:05:56.633Z,95302.61
2017-12-03T08:08:24.260Z,95305.09
2017-12-03T08:10:52.088Z,95320.52
2017-12-03T08:13:20.082Z,95319.98
2017-12-03T08:15:48.425Z,95335.86
2017-12-03T08:18:16.226Z,95338.69
2017-12-03T08:20:44.866Z,95367.48
2017-12-03T08:23:12.545Z,95347.23
2017-12-03T08:25:40.123Z,95375.66
2017-12-03T08:28:07.922Z,95388.20
2017-12-03T08:30:35.874Z,95380.72
2017-12-03T08:33:03.685Z,95368.79
2017-12-03T08:35:31.320Z,95383.18
2017-12-03T08:37:59.134Z,95368.23
2017-12-03T08:40:26.960Z,95362.59
2017-12-03T08:42:54.513Z,95380.12
2017-12-03T08:45:23.078Z,95383.76
2017-12-03T08:47:50.884Z,95358.48
2017-12-03T08:50:18.493Z,95339.94
2017-12-03T08:52:46.065Z,95359.06
2017-12-03T08:55:13.643Z,95352.30
2017-12-03T08:57:41.292Z,95353.70
2017-12-03T09:00:09.241Z,95356.34
2017-12-03T09:02:37.017Z,95350.41
2017-12-03T09:05:04.988Z,95356.12
2017-12-03T09:07:32.627Z,95356.72
2017-12-03T09:10:00.260Z,95361.16
2017-12-03T09:12:27.833Z,95357.63
2017-12-03T09:14:55.374Z,95368.84
2017-12-03T09:17:23.132Z,95365.54
2017-12-03T09:19:50.900Z,95384.20
2017-12-03T09:22:18.533Z,95375.01
2017-12-03T09:24:46.142Z,95383.47
2017-12-03T09:27:13.702Z,95395.25
2017-12-03T09:29:41.335Z,95394.19
2017-12-03T09:32:08.988Z,95397.75
2017-12-03T09:34:36.549Z,95388.57
2017-12-03T09:37:05.386Z,95376.42
2017-12-03T09:39:34.161Z,95373.41
2017-12-03T09:42:05.138Z,95366.02
2017-12-03T09:44:32.974Z,95365.87
2017-12-03T09:47:01.300Z,95381.36
2017-12-03T09:49:28.937Z,95380.97
2017-12-03T09:51:56.533Z,95385.06
2017-12-03T09:54:24.950Z,95398.69
2017-12-03T09:56:52.494Z,95384.66
2017-12-03T09:59:20.048Z,95384.84
2017-12-03T10:01:47.660Z,95398.04
2017-12-03T10:04:15.296Z,95393.72
2017-12-03T10:06:43.167Z,95396.28
2017-12-03T10:09:11.678Z,95397.95
2017-12-03T10:11:39.482Z,95398.64
2017-12-03T10:14:07.034Z,95396.87
2017-12-03T10:16:34.639Z,95391.05
2017-12-03T10:19:02.969Z,95401.33
2017-12-03T10:21:30.715Z,95396.33
2017-12-03T10:23:58.329Z,95382.55
2017-12-03T10:26:26.053Z,95388.24
2017-12-03T10:28:53.866Z,95384.63
2017-12-03T10:31:21.467Z,95374.31
2017-12-03T10:33:52.991Z,95408.02
2017-12-03T10:36:21.565Z,95420.28
2017-12-03T10:38:51.475Z,95417.12
2017-12-03T10:41:25.772Z,95427.31
2017-12-03T10:46:57.744Z,95410.58
2017-12-03T10:49:25.506Z,95417.77
2017-12-03T10:51:53.054Z,95424.64
2017-12-03T10:54:20.666Z,95407.91
2017-12-03T10:56:48.242Z,95418.45
2017-12-03T10:59:15.847Z,95394.94
2017-12-03T11:01:43.475Z,95394.77
2017-12-03T11:04:11.251Z,95377.30
2017-12-03T11:06:39.012Z,95378.06
2017-12-03T11:09:06.630Z,95389.58
2017-12-03T11:11:34.187Z,95378.20
2017-12-03T11:14:01.809Z,95368.50
2017-12-03T11:16:29.361Z,95376.48
2017-12-03T11:18:56.905Z,95374.20
2017-12-03T11:21:24.514Z,95371.48
2017-12-03T11:23:52.272Z,95361.30
2017-12-03T11:26:19.809Z,95363.66
2017-12-03T11:28:47.382Z,95358.27
2017-12-03T11:31:14.943Z,95369.50
2017-12-03T11:33:42.476Z,95373.70
2017-12-03T11:36:10.049Z,95384.63
2017-12-03T11:38:37.642Z,95383.38
2017-12-03T11:41:05.239Z,95393.46
2017-12-03T11:43:32.796Z,95374.89
2017-12-03T11:46:00.337Z,95373.76
2017-12-03T11:48:27.892Z,95392.17
2017-12-03T11:50:55.448Z,95385.75
2017-12-03T11:53:23.035Z,95374.48
2017-12-03T11:55:50.566Z,95372.31
2017-12-03T11:58:18.122Z,95378.35
2017-12-03T12:00:45.673Z,95385.09
2017-12-03T12:03:13.245Z,95378.94
2017-12-03T12:05:40.873Z,95396.39
2017-12-03T12:08:08.463Z,95386.30
2017-12-03T12:10:36.061Z,95388.34
2017-12-03T12:13:03.806Z,95384.23
2017-12-03T12:15:31.536Z,95384.16
2017-12-03T12:17:59.090Z,95384.20
2017-12-03T12:20:26.906Z,95366.24
2017-12-03T12:22:54.475Z,95359.75
2017-12-03T12:25:22.082Z,95358.56
2017-12-03T12:27:49.889Z,95369.00
2017-12-03T12:30:17.567Z,95384.98
2017-12-03T12:32:45.187Z,95375.92
2017-12-03T12:35:12.806Z,95370.91
2017-12-03T12:37:40.401Z,95367.43
2017-12-03T12:40:07.974Z,95340.22
2017-12-03T12:42:35.566Z,95338.18
2017-12-03T12:45:03.181Z,95338.34
2017-12-03T12:47:30.793Z,95334.09
2017-12-03T12:49:58.654Z,95345.64
2017-12-03T12:52:26.321Z,95340.28
2017-12-03T12:54:53.932Z,95354.11
2017-12-03T12:57:21.584Z,95350.97
2017-12-03T12:59:51.105Z,95349.73
2017-12-03T13:02:18.704Z,95348.52
2017-12-03T13:04:46.336Z,95353.84
2017-12-03T13:07:13.907Z,95358.24
2017-12-03T13:09:41.453Z,95343.66
2017-12-03T13:12:09.259Z,95347.81
2017-12-03T13:14:36.817Z,95351.87
2017-12-03T13:17:04.751Z,95344.95
2017-12-03T13:19:32.335Z,95359.43
2017-12-03T13:21:59.957Z,95363.43
2017-12-03T13:24:27.619Z,95380.62
2017-12-03T13:26:55.160Z,95376.33
2017-12-03T13:29:22.815Z,95369.68
2017-12-03T13:31:50.383Z,95362.36
2017-12-03T13:34:17.981Z,95356.97
2017-12-03T13:36:46.029Z,95370.23
2017-12-03T13:39:13.645Z,95371.22
2017-12-03T13:41:41.235Z,95378.33
2017-12-03T13:44:11.628Z,95358.86
2017-12-03T13:46:39.664Z,95355.86
2017-12-03T13:49:07.821Z,95369.45
2017-12-03T13:51:38.473Z,95379.91
2017-12-03T13:54:07.576Z,95365.94
2017-12-03T13:56:35.230Z,95370.25
2017-12-03T13:59:02.927Z,95377.45
2017-12-03T14:01:30.522Z,95390.34
2017-12-03T14:03:58.053Z,95382.59
2017-12-03T14:06:26.211Z,95384.14
2017-12-03T14:08:55.446Z,95394.14
2017-12-03T14:11:31.523Z,95392.48
2017-12-03T14:14:02.787Z,95396.44
2017-12-03T14:16:33.625Z,95411.04
2017-12-03T14:19:10.200Z,95412.41
2017-12-03T14:21:41.000Z,95406.58
2017-12-03T14:24:08.914Z,95412.34
2017-12-03T14:26:36.862Z,95420.66
2017-12-03T14:29:05.093Z,95407.19
2017-12-03T14:31:35.329Z,95409.03
2017-12-03T14:34:04.223Z,95419.44
2017-12-03T14:36:31.923Z,95406.30
2017-12-03T14:38:59.574Z,95404.41
2017-12-03T14:41:27.190Z,95422.97
2017-12-03T14:43:54.783Z,95433.56
2017-12-03T14:46:22.377Z,95428.45
2017-12-03T14:48:50.214Z,95436.77
2017-12-03T14:51:17.848Z,95428.87
2017-12-03T14:53:46.260Z,95438.03
2017-12-03T14:56:13.873Z,95435.47
2017-12-03T14:58:41.669Z,95432.53
2017-12-03T15:01:09.314Z,95446.83
2017-12-03T15:03:36.875Z,95437.77
2017-12-03T15:06:04.460Z,95437.92
2017-12-03T15:08:32.068Z,95434.95
2017-12-03T15:10:59.847Z,95440.19
2017-12-03T15:13:27.428Z,95440.63
2017-12-03T15:15:55.134Z,95443.16
2017-12-03T15:18:22.714Z,95446.77
2017-12-03T15:20:50.608Z,95444.92
2017-12-03T15:23:19.144Z,95439.48
2017-12-03T15:25:46.738Z,95447.78
2017-12-03T15:28:14.546Z,95455.91
2017-12-03T15:30:42.240Z,95457.91
2017-12-03T15:33:11.425Z,95454.91
2017-12-03T15:35:39.360Z,95448.92
2017-12-03T15:38:07.906Z,95448.36
2017-12-03T15:40:37.776Z,95450.87
2017-12-03T15:43:05.472Z,95454.36
2017-12-03T15:45:33.501Z,95460.78
2017-12-03T15:48:01.534Z,95475.56
2017-12-03T15:50:29.288Z,95495.89
2017-12-03T15:53:01.862Z,95499.17
2017-12-03T15:55:29.567Z,95500.05
2017-12-03T15:57:58.293Z,95509.05
2017-12-03T16:00:26.442Z,95487.59
2017-12-03T16:02:55.108Z,95483.97
2017-12-03T16:05:22.986Z,95489.73
2017-12-03T16:07:52.690Z,95476.66
2017-12-03T16:10:20.408Z,95511.23
2017-12-03T16:12:48.196Z,95519.81
2017-12-03T16:15:17.018Z,95512.68
2017-12-03T16:17:44.671Z,95503.25
2017-12-03T16:20:12.365Z,95499.55
2017-12-03T16:22:40.398Z,95505.30
2017-12-03T16:25:08.332Z,95498.92
2017-12-03T16:27:36.202Z,95500.02
2017-12-03T16:30:11.381Z,95510.56
2017-12-03T16:32:38.976Z,95495.57
2017-12-03T16:35:06.803Z,95506.95
2017-12-03T16:37:53.770Z,95509.08
2017-12-03T16:40:21.377Z,95511.72
2017-12-03T16:42:48.971Z,95519.16
2017-12-03T16:45:17.018Z,95523.66
2017-12-03T16:47:44.963Z,95519.02
2017-12-03T16:50:12.701Z,95502.28
2017-12-03T16:52:41.150Z,95510.86
2017-12-03T16:55:10.883Z,95517.16
2017-12-03T16:57:41.273Z,95521.66
2017-12-03T17:00:09.076Z,95529.06
2017-12-03T17:02:37.066Z,95523.33
2017-12-03T17:05:04.762Z,95521.83
2017-12-03T17:07:32.813Z,95525.89
2017-12-03T17:10:00.906Z,95530.73
2017-12-03T17:12:29.293Z,95549.88
2017-12-03T17:14:58.533Z,95562.47
2017-12-03T17:17:27.579Z,95551.15
2017-12-03T17:19:55.299Z,95543.96
2017-12-03T17:22:23.727Z,95546.08
2017-12-03T17:24:52.435Z,95548.23
2017-12-03T17:27:20.344Z,95545.44
2017-12-03T17:29:48.466Z,95542.53
2017-12-03T17:32:16.982Z,95534.77
2017-12-03T17:34:44.616Z,95561.27
2017-12-03T17:37:12.260Z,95560.74
2017-12-03T17:39:40.145Z,95565.56
2017-12-03T17:42:08.598Z,95550.69
2017-12-03T17:44:36.691Z,95541.48
2017-12-03T17:47:04.577Z,95550.59
2017-12-03T17:49:32.163Z,95555.95
2017-12-03T17:52:01.005Z,95567.46
2017-12-03T17:54:28.857Z,95562.12
2017-12-03T17:56:58.425Z,95554.95
2017-12-03T17:59:26.477Z,95558.28
2017-12-03T18:01:54.126Z,95555.59
2017-12-03T18:04:21.795Z,95556.84
2017-12-03T18:06:50.889Z,95557.95
2017-12-03T18:09:19.346Z,95558.66
2017-12-03T18:11:47.186Z,95576.39
2017-12-03T18:14:14.901Z,95580.53
2017-12-03T18:16:42.647Z,95581.72
2017-12-03T18:19:10.249Z,95590.59
2017-12-03T18:21:40.799Z,95594.60
2017-12-03T18:24:10.361Z,95598.25
2017-12-03T18:26:38.361Z,95600.70
2017-12-03T18:29:07.619Z,95591.52
2017-12-03T18:31:35.458Z,95596.02
2017-12-03T18:34:03.182Z,95600.70
2017-12-03T18:36:30.885Z,95572.45
2017-12-03T18:38:58.625Z,95622.73
2017-12-03T18:41:26.407Z,95616.00
2017-12-03T18:43:54.135Z,95621.70
2017-12-03T18:46:21.984Z,95617.66
2017-12-03T18:48:49.812Z,95615.98
2017-12-03T18:51:18.731Z,95607.29
2017-12-03T18:53:47.053Z,95608.84
2017-12-03T18:56:15.986Z,95616.84
2017-12-03T18:58:45.194Z,95601.59
2017-12-03T19:01:14.807Z,95600.14
2017-12-03T19:03:42.577Z,95595.48
2017-12-03T19:06:11.332Z,95599.79
2017-12-03T19:08:40.949Z,95606.78
2017-12-03T19:11:09.501Z,95610.02
2017-12-03T19:13:37.663Z,95612.77
2017-12-03T19:16:05.501Z,95628.69
2017-12-03T19:18:34.153Z,95622.56
2017-12-03T19:21:06.004Z,95630.92
2017-12-03T19:23:37.824Z,95620.73
2017-12-03T19:26:06.965Z,95619.94
2017-12-03T19:28:34.968Z,95627.97
2017-12-03T19:31:03.214Z,95642.61
2017-12-03T19:33:31.175Z,95649.50
2017-12-03T19:39:05.155Z,95632.69
2017-12-03T19:41:32.893Z,95634.69
2017-12-03T19:44:15.190Z,95634.63
2017-12-03T19:46:43.874Z,95640.75
2017-12-03T19:49:12.309Z,95659.29
2017-12-03T19:51:40.401Z,95668.45
2017-12-03T19:54:08.179Z,95667.03
2017-12-03T19:56:35.957Z,95667.13
2017-12-03T19:59:03.754Z,95669.03
2017-12-03T20:01:31.410Z,95661.48
2017-12-03T20:03:59.227Z,95660.75
2017-12-03T20:06:27.028Z,95666.67
2017-12-03T20:08:55.683Z,95660.80
2017-12-03T20:11:23.480Z,95663.42
2017-12-03T20:13:51.952Z,95674.88
2017-12-03T20:16:19.806Z,95685.89
2017-12-03T20:18:47.585Z,95677.33
2017-12-03T20:21:15.364Z,95681.52
2017-12-03T20:23:42.986Z,95685.83
2017-12-03T20:26:11.381Z,95692.20
2017-12-03T20:28:39.008Z,95696.75
2017-12-03T20:31:07.480Z,95698.43
2017-12-03T20:33:35.367Z,95700.91
2017-12-03T20:36:03.663Z,95698.62
2017-12-03T20:38:31.311Z,95698.00
2017-12-03T20:40:59.160Z,95697.73
2017-12-03T20:43:28.563Z,95703.86
2017-12-03T20:45:56.796Z,95722.78
2017-12-03T20:48:24.356Z,95705.11
2017-12-03T20:50:53.822Z,95701.67
2017-12-03T20:53:21.401Z,95711.23
2017-12-03T20:55:49.002Z,95716.84
2017-12-03T20:58:16.702Z,95723.71
2017-12-03T21:00:44.331Z,95715.33
2017-12-03T21:03:13.059Z,95724.67
2017-12-03T21:05:41.157Z,95731.06
2017-12-03T21:08:08.808Z,95726.69
2017-12-03T21:10:36.719Z,95726.45
2017-12-03T21:13:04.525Z,95710.87
2017-12-03T21:15:32.350Z,95731.59
2017-12-03T21:18:00.154Z,95727.44
2017-12-03T21:20:27.954Z,95726.82
2017-12-03T21:22:56.777Z,95741.45
2017-12-03T21:25:29.058Z,95743.30
2017-12-03T21:27:56.625Z,95742.72
2017-12-03T21:30:24.666Z,95747.23
2017-12-03T21:32:52.522Z,95741.95
2017-12-03T21:35:21.053Z,95746.84
2017-12-03T21:37:49.709Z,95753.62
2017-12-03T21:40:17.341Z,95746.55
2017-12-03T21:42:44.990Z,95757.12
2017-12-03T21:45:12.758Z,95752.33
2017-12-03T21:47:40.303Z,95751.66
2017-12-03T21:50:07.816Z,95740.49
2017-12-03T21:52:35.638Z,95741.20
2017-12-03T21:55:03.327Z,95742.64
2017-12-03T21:57:31.103Z,95739.55
2017-12-03T21:59:58.786Z,95743.17
2017-12-03T22:02:28.846Z,95752.16
2017-12-03T22:04:56.490Z,95749.91
2017-12-03T22:07:24.108Z,95753.81
2017-12-03T22:09:51.727Z,95750.28
2017-12-03T22:12:20.260Z,95747.45
2017-12-03T22:14:48.018Z,95742.50
2017-12-03T22:17:15.600Z,95742.28
2017-12-03T22:19:43.405Z,95745.58
2017-12-03T22:22:11.019Z,95752.77
2017-12-03T22:24:38.634Z,95741.16
2017-12-03T22:27:06.321Z,95742.09
2017-12-03T22:29:33.899Z,95736.02
2017-12-03T22:32:02.432Z,95737.91
2017-12-03T22:34:30.034Z,95726.28
2017-12-03T22:36:57.610Z,95740.89
2017-12-03T22:39:25.184Z,95734.14
2017-12-03T22:41:52.797Z,95751.53
2017-12-03T22:44:20.441Z,95747.24
2017-12-03T22:46:48.046Z,95755.98
2017-12-03T22:49:15.695Z,95744.28
2017-12-03T22:51:43.525Z,95748.34
2017-12-03T22:54:11.301Z,95748.30
2017-12-03T22:56:38.956Z,95753.84
2017-12-03T22:59:06.533Z,95749.78
2017-12-03T23:01:34.135Z,95758.75
2017-12-03T23:04:01.785Z,95749.80
2017-12-03T23:06:29.544Z,95757.69
2017-12-03T23:08:57.154Z,95747.06
2017-12-03T23:11:24.758Z,95742.48
2017-12-03T23:13:52.849Z,95742.69
2017-12-03T23:16:20.487Z,95735.60
2017-12-03T23:18:48.254Z,95726.14
2017-12-03T23:21:15.922Z,95722.38
2017-12-03T23:23:44.425Z,95728.43
2017-12-03T23:26:15.853Z,95738.03
2017-12-03T23:28:43.679Z,95734.64
2017-12-03T23:31:11.299Z,95737.00
2017-12-03T23:33:39.372Z,95746.16
2017-12-03T23:36:07.135Z,95762.92
2017-12-03T23:38:34.726Z,95754.25
2017-12-03T23:41:02.516Z,95757.06
2017-12-03T23:43:30.308Z,95736.88
2017-12-03T23:45:58.796Z,95751.84
2017-12-03T23:48:26.406Z,95766.28
2017-12-03T23:50:54.143Z,95768.59
2017-12-03T23:53:21.745Z,95771.50
2017-12-03T23:55:49.359Z,95776.33
2017-12-03T23:58:17.012Z,95769.63
